sensor_id;sensor_type;location;lat;lon;timestamp;pressure;altitude;pressure_sealevel;temperature;humidity
37368;BME280;23240;43.210;27.910;2023-01-29T00:00:51;101291.69;;;1.07;100.00
37368;BME280;23240;43.210;27.910;2023-01-29T00:03:16;101295.03;;;1.12;100.00
37368;BME280;23240;43.210;27.910;2023-01-29T00:05:41;101292.56;;;1.07;100.00
37368;BME280;23240;43.210;27.910;2023-01-29T00:08:07;101287.06;;;1.13;100.00
37368;BME280;23240;43.210;27.910;2023-01-29T00:10:32;101289.75;;;1.12;100.00
37368;BME280;23240;43.210;27.910;2023-01-29T00:12:58;101280.94;;;1.11;100.00
37368;BME280;23240;43.210;27.910;2023-01-29T00:15:23;101287.38;;;1.04;100.00
37368;BME280;23240;43.210;27.910;2023-01-29T00:17:49;101296.97;;;1.07;100.00
37368;BME280;23240;43.210;27.910;2023-01-29T00:20:14;101293.72;;;0.98;100.00
37368;BME280;23240;43.210;27.910;2023-01-29T00:22:40;101303.03;;;1.09;100.00
37368;BME280;23240;43.210;27.910;2023-01-29T00:25:06;101308.56;;;1.01;100.00
37368;BME280;23240;43.210;27.910;2023-01-29T00:27:32;101303.28;;;1.01;100.00
37368;BME280;23240;43.210;27.910;2023-01-29T00:29:57;101304.13;;;1.01;100.00
37368;BME280;23240;43.210;27.910;2023-01-29T00:32:41;101305.88;;;1.02;100.00
37368;BME280;23240;43.210;27.910;2023-01-29T00:35:07;101310.31;;;1.02;100.00
37368;BME280;23240;43.210;27.910;2023-01-29T00:37:33;101306.28;;;0.90;100.00
37368;BME280;23240;43.210;27.910;2023-01-29T00:39:59;101305.97;;;0.99;100.00
37368;BME280;23240;43.210;27.910;2023-01-29T00:42:24;101303.97;;;1.08;100.00
37368;BME280;23240;43.210;27.910;2023-01-29T00:45:10;101288.13;;;1.08;100.00
37368;BME280;23240;43.210;27.910;2023-01-29T00:47:36;101304.66;;;1.13;100.00
37368;BME280;23240;43.210;27.910;2023-01-29T00:50:04;101311.56;;;1.17;100.00
37368;BME280;23240;43.210;27.910;2023-01-29T00:52:30;101304.66;;;1.13;100.00
37368;BME280;23240;43.210;27.910;2023-01-29T00:54:58;101299.31;;;1.14;100.00
37368;BME280;23240;43.210;27.910;2023-01-29T00:57:25;101301.34;;;1.06;100.00
37368;BME280;23240;43.210;27.910;2023-01-29T00:59:51;101310.47;;;0.97;100.00
37368;BME280;23240;43.210;27.910;2023-01-29T01:02:17;101297.00;;;1.05;100.00
37368;BME280;23240;43.210;27.910;2023-01-29T01:05:02;101298.38;;;1.17;100.00
37368;BME280;23240;43.210;27.910;2023-01-29T01:07:28;101304.38;;;1.22;100.00
37368;BME280;23240;43.210;27.910;2023-01-29T01:09:54;101306.28;;;1.17;100.00
37368;BME280;23240;43.210;27.910;2023-01-29T01:12:38;101300.09;;;1.18;100.00
37368;BME280;23240;43.210;27.910;2023-01-29T01:15:04;101292.28;;;1.15;100.00
37368;BME280;23240;43.210;27.910;2023-01-29T01:17:29;101300.19;;;1.15;100.00
37368;BME280;23240;43.210;27.910;2023-01-29T01:19:55;101307.72;;;1.25;100.00
37368;BME280;23240;43.210;27.910;2023-01-29T01:22:20;101299.78;;;1.27;100.00
37368;BME280;23240;43.210;27.910;2023-01-29T01:24:46;101304.94;;;1.30;100.00
37368;BME280;23240;43.210;27.910;2023-01-29T01:27:12;101307.69;;;1.27;100.00
37368;BME280;23240;43.210;27.910;2023-01-29T01:29:37;101310.44;;;1.24;100.00
37368;BME280;23240;43.210;27.910;2023-01-29T01:32:03;101319.97;;;1.28;100.00
37368;BME280;23240;43.210;27.910;2023-01-29T01:34:30;101316.53;;;1.26;100.00
37368;BME280;23240;43.210;27.910;2023-01-29T01:36:55;101326.19;;;1.27;100.00
37368;BME280;23240;43.210;27.910;2023-01-29T01:39:21;101320.06;;;1.25;100.00
37368;BME280;23240;43.210;27.910;2023-01-29T01:41:47;101327.97;;;1.25;100.00
37368;BME280;23240;43.210;27.910;2023-01-29T01:44:51;101333.31;;;1.23;100.00
37368;BME280;23240;43.210;27.910;2023-01-29T01:47:21;101328.97;;;1.22;100.00
37368;BME280;23240;43.210;27.910;2023-01-29T01:49:48;101326.34;;;1.22;100.00
37368;BME280;23240;43.210;27.910;2023-01-29T01:52:14;101333.56;;;1.16;100.00
37368;BME280;23240;43.210;27.910;2023-01-29T01:54:42;101344.25;;;1.13;100.00
37368;BME280;23240;43.210;27.910;2023-01-29T01:57:13;101335.91;;;1.25;100.00
37368;BME280;23240;43.210;27.910;2023-01-29T01:59:47;101336.59;;;1.30;100.00
37368;BME280;23240;43.210;27.910;2023-01-29T02:02:15;101339.16;;;1.33;100.00
37368;BME280;23240;43.210;27.910;2023-01-29T02:05:00;101339.09;;;1.35;100.00
37368;BME280;23240;43.210;27.910;2023-01-29T02:07:46;101336.69;;;1.28;100.00
37368;BME280;23240;43.210;27.910;2023-01-29T02:10:38;101342.09;;;1.24;100.00
37368;BME280;23240;43.210;27.910;2023-01-29T02:13:06;101349.22;;;1.22;100.00
37368;BME280;23240;43.210;27.910;2023-01-29T02:15:32;101336.28;;;1.14;100.00
37368;BME280;23240;43.210;27.910;2023-01-29T02:17:58;101341.97;;;1.02;100.00
37368;BME280;23240;43.210;27.910;2023-01-29T02:20:27;101332.44;;;0.96;100.00
37368;BME280;23240;43.210;27.910;2023-01-29T02:28:20;101342.63;;;1.09;100.00
37368;BME280;23240;43.210;27.910;2023-01-29T02:31:15;101338.84;;;1.16;100.00
37368;BME280;23240;43.210;27.910;2023-01-29T02:41:36;101321.31;;;0.88;100.00
37368;BME280;23240;43.210;27.910;2023-01-29T02:44:18;101330.06;;;0.89;100.00
37368;BME280;23240;43.210;27.910;2023-01-29T02:49:37;101345.63;;;0.96;100.00
37368;BME280;23240;43.210;27.910;2023-01-29T02:52:14;101330.72;;;0.95;100.00
37368;BME280;23240;43.210;27.910;2023-01-29T02:54:50;101329.06;;;0.93;100.00
37368;BME280;23240;43.210;27.910;2023-01-29T02:57:23;101318.66;;;0.88;100.00
37368;BME280;23240;43.210;27.910;2023-01-29T03:00:02;101321.03;;;0.96;100.00
37368;BME280;23240;43.210;27.910;2023-01-29T03:02:40;101329.16;;;0.90;100.00
37368;BME280;23240;43.210;27.910;2023-01-29T03:05:11;101327.59;;;0.84;100.00
37368;BME280;23240;43.210;27.910;2023-01-29T03:07:42;101315.25;;;0.85;100.00
37368;BME280;23240;43.210;27.910;2023-01-29T03:10:20;101322.44;;;0.80;100.00
37368;BME280;23240;43.210;27.910;2023-01-29T03:12:52;101312.84;;;0.77;100.00
37368;BME280;23240;43.210;27.910;2023-01-29T03:15:27;101318.81;;;0.84;100.00
37368;BME280;23240;43.210;27.910;2023-01-29T03:18:01;101315.41;;;0.80;100.00
37368;BME280;23240;43.210;27.910;2023-01-29T03:20:38;101311.75;;;0.84;100.00
37368;BME280;23240;43.210;27.910;2023-01-29T03:23:14;101315.09;;;0.89;100.00
37368;BME280;23240;43.210;27.910;2023-01-29T03:25:41;101312.81;;;0.79;100.00
37368;BME280;23240;43.210;27.910;2023-01-29T03:28:27;101311.03;;;0.79;100.00
37368;BME280;23240;43.210;27.910;2023-01-29T03:31:13;101296.16;;;0.76;100.00
37368;BME280;23240;43.210;27.910;2023-01-29T03:34:08;101293.09;;;0.64;100.00
37368;BME280;23240;43.210;27.910;2023-01-29T03:37:01;101283.44;;;0.63;100.00
37368;BME280;23240;43.210;27.910;2023-01-29T03:39:28;101322.88;;;0.66;100.00
37368;BME280;23240;43.210;27.910;2023-01-29T03:42:18;101294.03;;;0.61;100.00
37368;BME280;23240;43.210;27.910;2023-01-29T03:45:05;101285.47;;;0.55;100.00
37368;BME280;23240;43.210;27.910;2023-01-29T03:47:48;101293.56;;;0.48;100.00
37368;BME280;23240;43.210;27.910;2023-01-29T03:58:52;101306.09;;;0.40;100.00
37368;BME280;23240;43.210;27.910;2023-01-29T04:01:27;101336.75;;;0.43;100.00
37368;BME280;23240;43.210;27.910;2023-01-29T04:06:28;101331.28;;;0.50;100.00
37368;BME280;23240;43.210;27.910;2023-01-29T04:09:21;101335.63;;;0.51;100.00
37368;BME280;23240;43.210;27.910;2023-01-29T04:11:53;101330.28;;;0.55;100.00
37368;BME280;23240;43.210;27.910;2023-01-29T04:14:20;101349.34;;;0.63;100.00
37368;BME280;23240;43.210;27.910;2023-01-29T04:16:48;101367.75;;;0.64;100.00
37368;BME280;23240;43.210;27.910;2023-01-29T04:19:15;101360.66;;;0.66;100.00
37368;BME280;23240;43.210;27.910;2023-01-29T04:21:41;101370.06;;;0.75;100.00
37368;BME280;23240;43.210;27.910;2023-01-29T04:24:09;101382.59;;;0.67;100.00
37368;BME280;23240;43.210;27.910;2023-01-29T04:34:59;101414.13;;;0.71;100.00
37368;BME280;23240;43.210;27.910;2023-01-29T04:37:47;101427.22;;;0.74;100.00
37368;BME280;23240;43.210;27.910;2023-01-29T04:40:24;101415.53;;;0.83;100.00
37368;BME280;23240;43.210;27.910;2023-01-29T04:43:14;101419.06;;;0.82;100.00
37368;BME280;23240;43.210;27.910;2023-01-29T04:48:29;101419.63;;;0.93;100.00
37368;BME280;23240;43.210;27.910;2023-01-29T04:53:54;101414.19;;;0.98;100.00
37368;BME280;23240;43.210;27.910;2023-01-29T04:56:35;101423.25;;;0.89;100.00
37368;BME280;23240;43.210;27.910;2023-01-29T04:59:08;101422.53;;;0.84;100.00
37368;BME280;23240;43.210;27.910;2023-01-29T05:01:36;101415.41;;;0.86;100.00
37368;BME280;23240;43.210;27.910;2023-01-29T05:04:09;101425.81;;;0.92;100.00
37368;BME280;23240;43.210;27.910;2023-01-29T05:06:38;101422.19;;;0.95;100.00
37368;BME280;23240;43.210;27.910;2023-01-29T05:09:04;101424.06;;;0.91;100.00
37368;BME280;23240;43.210;27.910;2023-01-29T05:11:31;101415.34;;;0.89;100.00
37368;BME280;23240;43.210;27.910;2023-01-29T05:14:01;101429.78;;;0.76;100.00
37368;BME280;23240;43.210;27.910;2023-01-29T05:16:37;101430.63;;;0.78;100.00
37368;BME280;23240;43.210;27.910;2023-01-29T05:19:11;101435.47;;;0.92;100.00
37368;BME280;23240;43.210;27.910;2023-01-29T05:21:39;101423.78;;;1.00;100.00
37368;BME280;23240;43.210;27.910;2023-01-29T05:24:16;101428.09;;;1.03;100.00
37368;BME280;23240;43.210;27.910;2023-01-29T05:26:43;101435.97;;;1.05;100.00
37368;BME280;23240;43.210;27.910;2023-01-29T05:29:29;101438.53;;;1.06;100.00
37368;BME280;23240;43.210;27.910;2023-01-29T05:31:54;101437.06;;;0.97;100.00
37368;BME280;23240;43.210;27.910;2023-01-29T05:34:20;101438.66;;;1.03;100.00
37368;BME280;23240;43.210;27.910;2023-01-29T05:36:45;101434.75;;;1.15;100.00
37368;BME280;23240;43.210;27.910;2023-01-29T05:39:11;101440.75;;;1.20;100.00
37368;BME280;23240;43.210;27.910;2023-01-29T05:41:36;101438.81;;;1.25;100.00
37368;BME280;23240;43.210;27.910;2023-01-29T05:44:02;101440.44;;;1.31;100.00
37368;BME280;23240;43.210;27.910;2023-01-29T05:46:28;101454.66;;;1.25;100.00
37368;BME280;23240;43.210;27.910;2023-01-29T05:48:53;101443.81;;;1.34;100.00
37368;BME280;23240;43.210;27.910;2023-01-29T05:51:19;101450.50;;;1.18;100.00
37368;BME280;23240;43.210;27.910;2023-01-29T05:53:44;101454.66;;;1.25;100.00
37368;BME280;23240;43.210;27.910;2023-01-29T05:56:10;101455.44;;;1.28;100.00
37368;BME280;23240;43.210;27.910;2023-01-29T05:58:36;101459.19;;;1.21;100.00
37368;BME280;23240;43.210;27.910;2023-01-29T06:01:12;101466.06;;;1.27;100.00
37368;BME280;23240;43.210;27.910;2023-01-29T06:03:38;101465.00;;;1.33;100.00
37368;BME280;23240;43.210;27.910;2023-01-29T06:06:04;101474.53;;;1.37;100.00
37368;BME280;23240;43.210;27.910;2023-01-29T06:08:29;101469.25;;;1.37;100.00
37368;BME280;23240;43.210;27.910;2023-01-29T06:10:55;101480.97;;;1.28;100.00
37368;BME280;23240;43.210;27.910;2023-01-29T06:13:20;101483.38;;;1.36;100.00
37368;BME280;23240;43.210;27.910;2023-01-29T06:15:46;101481.75;;;1.32;100.00
37368;BME280;23240;43.210;27.910;2023-01-29T06:18:11;101488.97;;;1.25;100.00
37368;BME280;23240;43.210;27.910;2023-01-29T06:20:37;101495.84;;;1.02;100.00
37368;BME280;23240;43.210;27.910;2023-01-29T06:23:03;101486.72;;;1.13;100.00
37368;BME280;23240;43.210;27.910;2023-01-29T06:25:29;101483.84;;;1.20;100.00
37368;BME280;23240;43.210;27.910;2023-01-29T06:27:55;101489.13;;;1.20;100.00
37368;BME280;23240;43.210;27.910;2023-01-29T06:30:20;101481.06;;;1.25;100.00
37368;BME280;23240;43.210;27.910;2023-01-29T06:32:46;101485.34;;;1.29;100.00
37368;BME280;23240;43.210;27.910;2023-01-29T06:35:11;101501.16;;;1.29;100.00
37368;BME280;23240;43.210;27.910;2023-01-29T06:37:37;101496.88;;;1.26;100.00
37368;BME280;23240;43.210;27.910;2023-01-29T06:40:03;101501.31;;;1.24;100.00
37368;BME280;23240;43.210;27.910;2023-01-29T06:42:28;101503.81;;;1.29;100.00
37368;BME280;23240;43.210;27.910;2023-01-29T06:44:54;101494.69;;;1.39;100.00
37368;BME280;23240;43.210;27.910;2023-01-29T06:47:21;101505.31;;;1.38;100.00
37368;BME280;23240;43.210;27.910;2023-01-29T06:49:46;101507.44;;;1.25;100.00
37368;BME280;23240;43.210;27.910;2023-01-29T06:52:12;101510.50;;;1.11;100.00
37368;BME280;23240;43.210;27.910;2023-01-29T06:54:37;101503.22;;;1.19;100.00
37368;BME280;23240;43.210;27.910;2023-01-29T06:57:03;101507.56;;;1.22;100.00
37368;BME280;23240;43.210;27.910;2023-01-29T06:59:28;101507.28;;;1.31;100.00
37368;BME280;23240;43.210;27.910;2023-01-29T07:01:54;101510.59;;;1.38;100.00
37368;BME280;23240;43.210;27.910;2023-01-29T07:04:19;101517.44;;;1.43;100.00
37368;BME280;23240;43.210;27.910;2023-01-29T07:06:45;101515.38;;;1.53;100.00
37368;BME280;23240;43.210;27.910;2023-01-29T07:09:11;101522.06;;;1.65;100.00
37368;BME280;23240;43.210;27.910;2023-01-29T07:11:38;101520.00;;;1.73;100.00
37368;BME280;23240;43.210;27.910;2023-01-29T07:14:04;101522.47;;;1.79;100.00
37368;BME280;23240;43.210;27.910;2023-01-29T07:16:29;101530.19;;;1.85;100.00
37368;BME280;23240;43.210;27.910;2023-01-29T07:18:55;101528.66;;;1.78;100.00
37368;BME280;23240;43.210;27.910;2023-01-29T07:21:21;101532.00;;;1.83;100.00
37368;BME280;23240;43.210;27.910;2023-01-29T07:23:46;101534.69;;;1.82;100.00
37368;BME280;23240;43.210;27.910;2023-01-29T07:26:12;101543.25;;;1.90;100.00
37368;BME280;23240;43.210;27.910;2023-01-29T07:28:38;101522.84;;;1.93;100.00
37368;BME280;23240;43.210;27.910;2023-01-29T07:31:05;101536.06;;;1.93;100.00
37368;BME280;23240;43.210;27.910;2023-01-29T07:33:31;101550.50;;;1.83;100.00
37368;BME280;23240;43.210;27.910;2023-01-29T07:35:56;101551.25;;;1.87;100.00
37368;BME280;23240;43.210;27.910;2023-01-29T07:38:22;101551.75;;;1.99;100.00
37368;BME280;23240;43.210;27.910;2023-01-29T07:40:48;101551.03;;;1.94;100.00
37368;BME280;23240;43.210;27.910;2023-01-29T07:43:14;101556.19;;;1.97;100.00
37368;BME280;23240;43.210;27.910;2023-01-29T07:45:41;101559.59;;;2.01;100.00
37368;BME280;23240;43.210;27.910;2023-01-29T07:48:09;101561.28;;;2.03;100.00
37368;BME280;23240;43.210;27.910;2023-01-29T07:50:35;101567.00;;;2.18;100.00
37368;BME280;23240;43.210;27.910;2023-01-29T07:53:01;101567.47;;;2.29;100.00
37368;BME280;23240;43.210;27.910;2023-01-29T07:55:27;101568.50;;;2.25;100.00
37368;BME280;23240;43.210;27.910;2023-01-29T07:58:02;101575.94;;;2.14;100.00
37368;BME280;23240;43.210;27.910;2023-01-29T08:00:29;101571.97;;;2.00;100.00
37368;BME280;23240;43.210;27.910;2023-01-29T08:03:06;101578.47;;;1.90;100.00
37368;BME280;23240;43.210;27.910;2023-01-29T08:05:32;101563.22;;;1.98;100.00
37368;BME280;23240;43.210;27.910;2023-01-29T08:07:58;101575.22;;;2.09;100.00
37368;BME280;23240;43.210;27.910;2023-01-29T08:10:24;101572.38;;;2.15;100.00
37368;BME280;23240;43.210;27.910;2023-01-29T08:12:56;101573.38;;;2.11;100.00
37368;BME280;23240;43.210;27.910;2023-01-29T08:15:21;101571.09;;;2.00;100.00
37368;BME280;23240;43.210;27.910;2023-01-29T08:17:48;101562.91;;;2.08;100.00
37368;BME280;23240;43.210;27.910;2023-01-29T08:20:13;101582.44;;;2.03;100.00
37368;BME280;23240;43.210;27.910;2023-01-29T08:22:39;101575.53;;;1.98;100.00
37368;BME280;23240;43.210;27.910;2023-01-29T08:25:04;101566.31;;;1.85;100.00
37368;BME280;23240;43.210;27.910;2023-01-29T08:27:30;101578.81;;;1.79;100.00
37368;BME280;23240;43.210;27.910;2023-01-29T08:29:55;101572.19;;;1.66;100.00
37368;BME280;23240;43.210;27.910;2023-01-29T08:32:21;101565.19;;;1.64;100.00
37368;BME280;23240;43.210;27.910;2023-01-29T08:34:46;101568.91;;;1.58;100.00
37368;BME280;23240;43.210;27.910;2023-01-29T08:37:12;101565.53;;;1.53;100.00
37368;BME280;23240;43.210;27.910;2023-01-29T08:39:38;101565.47;;;1.56;100.00
37368;BME280;23240;43.210;27.910;2023-01-29T08:42:03;101559.13;;;1.62;100.00
37368;BME280;23240;43.210;27.910;2023-01-29T08:44:29;101544.19;;;1.61;100.00
37368;BME280;23240;43.210;27.910;2023-01-29T08:46:54;101557.41;;;1.59;100.00
37368;BME280;23240;43.210;27.910;2023-01-29T08:49:20;101557.47;;;1.58;100.00
37368;BME280;23240;43.210;27.910;2023-01-29T08:51:45;101565.66;;;1.50;100.00
37368;BME280;23240;43.210;27.910;2023-01-29T08:54:11;101565.34;;;1.59;100.00
37368;BME280;23240;43.210;27.910;2023-01-29T08:56:36;101551.91;;;1.67;100.00
37368;BME280;23240;43.210;27.910;2023-01-29T08:59:02;101555.41;;;1.67;100.00
37368;BME280;23240;43.210;27.910;2023-01-29T09:01:27;101555.25;;;1.72;100.00
37368;BME280;23240;43.210;27.910;2023-01-29T09:03:53;101560.84;;;1.63;100.00
37368;BME280;23240;43.210;27.910;2023-01-29T09:06:18;101561.41;;;1.72;100.00
37368;BME280;23240;43.210;27.910;2023-01-29T09:08:44;101556.81;;;1.79;100.00
37368;BME280;23240;43.210;27.910;2023-01-29T09:11:09;101563.09;;;1.75;100.00
37368;BME280;23240;43.210;27.910;2023-01-29T09:13:35;101558.63;;;1.77;100.00
37368;BME280;23240;43.210;27.910;2023-01-29T09:16:02;101555.56;;;1.63;100.00
37368;BME280;23240;43.210;27.910;2023-01-29T09:18:28;101569.59;;;1.65;100.00
37368;BME280;23240;43.210;27.910;2023-01-29T09:20:54;101566.59;;;1.75;100.00
37368;BME280;23240;43.210;27.910;2023-01-29T09:23:20;101558.41;;;1.83;100.00
37368;BME280;23240;43.210;27.910;2023-01-29T09:25:45;101547.56;;;1.92;100.00
37368;BME280;23240;43.210;27.910;2023-01-29T09:28:11;101554.78;;;1.87;100.00
37368;BME280;23240;43.210;27.910;2023-01-29T09:30:37;101552.13;;;1.87;100.00
37368;BME280;23240;43.210;27.910;2023-01-29T09:33:04;101562.09;;;2.05;100.00
37368;BME280;23240;43.210;27.910;2023-01-29T09:35:30;101553.41;;;2.02;100.00
37368;BME280;23240;43.210;27.910;2023-01-29T09:37:55;101552.84;;;2.19;100.00
37368;BME280;23240;43.210;27.910;2023-01-29T09:42:59;101551.75;;;1.99;100.00
37368;BME280;23240;43.210;27.910;2023-01-29T09:45:27;101535.88;;;1.99;100.00
37368;BME280;23240;43.210;27.910;2023-01-29T09:47:59;101536.59;;;2.04;100.00
37368;BME280;23240;43.210;27.910;2023-01-29T09:55:30;101543.44;;;2.10;100.00
37368;BME280;23240;43.210;27.910;2023-01-29T09:58:05;101526.69;;;2.36;100.00
37368;BME280;23240;43.210;27.910;2023-01-29T10:11:47;101538.56;;;2.49;100.00
37368;BME280;23240;43.210;27.910;2023-01-29T10:23:23;101525.97;;;2.31;100.00
37368;BME280;23240;43.210;27.910;2023-01-29T10:25:51;101539.91;;;2.36;100.00
37368;BME280;23240;43.210;27.910;2023-01-29T10:28:22;101538.88;;;2.40;100.00
37368;BME280;23240;43.210;27.910;2023-01-29T10:30:54;101538.88;;;2.40;100.00
37368;BME280;23240;43.210;27.910;2023-01-29T10:33:30;101532.56;;;2.44;100.00
37368;BME280;23240;43.210;27.910;2023-01-29T10:36:02;101556.06;;;2.27;100.00
37368;BME280;23240;43.210;27.910;2023-01-29T10:38:44;101539.25;;;2.03;100.00
37368;BME280;23240;43.210;27.910;2023-01-29T10:46:27;101525.59;;;2.17;100.00
37368;BME280;23240;43.210;27.910;2023-01-29T10:52:05;101531.25;;;2.31;100.00
37368;BME280;23240;43.210;27.910;2023-01-29T10:54:41;101518.38;;;2.22;100.00
37368;BME280;23240;43.210;27.910;2023-01-29T11:02:47;101503.03;;;2.06;100.00
37368;BME280;23240;43.210;27.910;2023-01-29T11:05:37;101512.28;;;1.93;100.00
37368;BME280;23240;43.210;27.910;2023-01-29T11:08:11;101521.44;;;1.83;100.00
37368;BME280;23240;43.210;27.910;2023-01-29T11:11:12;101516.91;;;1.60;100.00
37368;BME280;23240;43.210;27.910;2023-01-29T11:13:43;101515.09;;;1.62;100.00
37368;BME280;23240;43.210;27.910;2023-01-29T11:16:11;101518.19;;;1.75;100.00
37368;BME280;23240;43.210;27.910;2023-01-29T11:18:57;101521.13;;;1.92;100.00
37368;BME280;23240;43.210;27.910;2023-01-29T11:21:25;101518.41;;;1.95;100.00
37368;BME280;23240;43.210;27.910;2023-01-29T11:24:12;101519.72;;;1.82;100.00
37368;BME280;23240;43.210;27.910;2023-01-29T11:26:42;101504.72;;;1.83;100.00
37368;BME280;23240;43.210;27.910;2023-01-29T11:29:31;101499.81;;;1.72;100.00
37368;BME280;23240;43.210;27.910;2023-01-29T11:31:59;101504.06;;;1.76;100.00
37368;BME280;23240;43.210;27.910;2023-01-29T11:34:25;101496.81;;;1.83;100.00
37368;BME280;23240;43.210;27.910;2023-01-29T11:37:10;101520.56;;;1.83;100.00
37368;BME280;23240;43.210;27.910;2023-01-29T11:39:42;101508.38;;;1.78;100.00
37368;BME280;23240;43.210;27.910;2023-01-29T11:42:20;101509.84;;;1.87;100.00
37368;BME280;23240;43.210;27.910;2023-01-29T11:44:46;101533.63;;;1.87;100.00
37368;BME280;23240;43.210;27.910;2023-01-29T11:47:26;101507.50;;;1.78;100.00
37368;BME280;23240;43.210;27.910;2023-01-29T11:49:58;101506.22;;;1.65;100.00
37368;BME280;23240;43.210;27.910;2023-01-29T11:52:34;101497.47;;;1.63;100.00
37368;BME280;23240;43.210;27.910;2023-01-29T11:55:02;101512.66;;;1.54;100.00
37368;BME280;23240;43.210;27.910;2023-01-29T11:57:33;101503.00;;;1.55;100.00
37368;BME280;23240;43.210;27.910;2023-01-29T12:00:23;101511.53;;;1.63;100.00
37368;BME280;23240;43.210;27.910;2023-01-29T12:05:24;101514.72;;;1.73;100.00
37368;BME280;23240;43.210;27.910;2023-01-29T12:07:55;101502.66;;;1.66;100.00
37368;BME280;23240;43.210;27.910;2023-01-29T12:10:32;101522.38;;;1.54;100.00
37368;BME280;23240;43.210;27.910;2023-01-29T12:15:45;101516.66;;;1.68;100.00
37368;BME280;23240;43.210;27.910;2023-01-29T12:18:32;101507.44;;;1.81;100.00
37368;BME280;23240;43.210;27.910;2023-01-29T12:21:21;101511.78;;;1.82;100.00
37368;BME280;23240;43.210;27.910;2023-01-29T12:24:00;101513.47;;;1.85;100.00
37368;BME280;23240;43.210;27.910;2023-01-29T12:26:49;101509.97;;;1.84;100.00
37368;BME280;23240;43.210;27.910;2023-01-29T12:32:06;101513.50;;;1.83;100.00
37368;BME280;23240;43.210;27.910;2023-01-29T12:34:43;101518.34;;;1.70;100.00
37368;BME280;23240;43.210;27.910;2023-01-29T12:37:24;101507.81;;;1.69;100.00
37368;BME280;23240;43.210;27.910;2023-01-29T12:39:53;101513.81;;;1.74;100.00
37368;BME280;23240;43.210;27.910;2023-01-29T12:42:20;101518.38;;;1.69;100.00
37368;BME280;23240;43.210;27.910;2023-01-29T12:47:19;101519.56;;;1.60;100.00
37368;BME280;23240;43.210;27.910;2023-01-29T12:49:51;101515.31;;;1.54;100.00
37368;BME280;23240;43.210;27.910;2023-01-29T12:55:05;101522.63;;;1.46;100.00
37368;BME280;23240;43.210;27.910;2023-01-29T12:57:54;101523.50;;;1.47;100.00
37368;BME280;23240;43.210;27.910;2023-01-29T13:00:26;101526.91;;;1.50;100.00
37368;BME280;23240;43.210;27.910;2023-01-29T13:08:00;101528.91;;;1.42;100.00
37368;BME280;23240;43.210;27.910;2023-01-29T13:10:42;101533.22;;;1.45;100.00
37368;BME280;23240;43.210;27.910;2023-01-29T13:13:32;101531.41;;;1.47;100.00
37368;BME280;23240;43.210;27.910;2023-01-29T13:15:59;101536.63;;;1.48;100.00
37368;BME280;23240;43.210;27.910;2023-01-29T13:18:56;101534.84;;;1.50;100.00
37368;BME280;23240;43.210;27.910;2023-01-29T13:21:26;101543.41;;;1.57;100.00
37368;BME280;23240;43.210;27.910;2023-01-29T13:24:03;101541.13;;;1.73;100.00
37368;BME280;23240;43.210;27.910;2023-01-29T13:26:30;101545.47;;;1.75;100.00
37368;BME280;23240;43.210;27.910;2023-01-29T13:28:57;101548.25;;;1.71;100.00
37368;BME280;23240;43.210;27.910;2023-01-29T13:31:26;101551.06;;;1.66;100.00
37368;BME280;23240;43.210;27.910;2023-01-29T13:34:13;101551.13;;;1.63;100.00
37368;BME280;23240;43.210;27.910;2023-01-29T13:36:51;101559.31;;;1.56;100.00
37368;BME280;23240;43.210;27.910;2023-01-29T13:41:57;101567.66;;;1.70;100.00
37368;BME280;23240;43.210;27.910;2023-01-29T13:44:39;101564.56;;;1.84;100.00
37368;BME280;23240;43.210;27.910;2023-01-29T13:47:08;101559.09;;;1.90;100.00
37368;BME280;23240;43.210;27.910;2023-01-29T13:55:22;101567.25;;;1.82;100.00
37368;BME280;23240;43.210;27.910;2023-01-29T13:57:52;101554.78;;;1.87;100.00
37368;BME280;23240;43.210;27.910;2023-01-29T14:10:29;101567.25;;;1.82;100.00
37368;BME280;23240;43.210;27.910;2023-01-29T14:15:30;101562.75;;;1.86;100.00
37368;BME280;23240;43.210;27.910;2023-01-29T14:18:03;101572.91;;;1.98;100.00
37368;BME280;23240;43.210;27.910;2023-01-29T14:20:31;101569.47;;;1.96;100.00
37368;BME280;23240;43.210;27.910;2023-01-29T14:22:58;101559.97;;;1.90;100.00
37368;BME280;23240;43.210;27.910;2023-01-29T14:25:30;101570.53;;;1.90;100.00
37368;BME280;23240;43.210;27.910;2023-01-29T14:27:59;101576.53;;;1.95;100.00
37368;BME280;23240;43.210;27.910;2023-01-29T14:30:29;101568.81;;;1.89;100.00
37368;BME280;23240;43.210;27.910;2023-01-29T14:32:55;101577.78;;;1.84;100.00
37368;BME280;23240;43.210;27.910;2023-01-29T14:35:23;101577.69;;;1.87;100.00
37368;BME280;23240;43.210;27.910;2023-01-29T14:37:52;101580.59;;;1.79;100.00
37368;BME280;23240;43.210;27.910;2023-01-29T14:40:22;101581.53;;;1.76;100.00
37368;BME280;23240;43.210;27.910;2023-01-29T14:43:07;101581.38;;;1.81;100.00
37368;BME280;23240;43.210;27.910;2023-01-29T14:45:35;101581.69;;;1.72;100.00
37368;BME280;23240;43.210;27.910;2023-01-29T14:55:44;101594.81;;;1.73;100.00
37368;BME280;23240;43.210;27.910;2023-01-29T14:58:15;101589.25;;;1.83;100.00
37368;BME280;23240;43.210;27.910;2023-01-29T15:00:44;101587.38;;;1.86;100.00
37368;BME280;23240;43.210;27.910;2023-01-29T15:03:18;101593.47;;;1.88;100.00
37368;BME280;23240;43.210;27.910;2023-01-29T15:05:48;101588.69;;;1.73;100.00
37368;BME280;23240;43.210;27.910;2023-01-29T15:08:28;101583.31;;;1.76;100.00